Rajahmundry Airport
VORY : now visible

Airfield :











YOU CAN JOIN US ON...

 
LOGIN :

Register | Disclaimer

   EN    FR    IT 

 









Legend :    VFR   Marginal VFR   IFR   Intensive IFR   Very Intensive IFR
Visi :
Ceiling :
>= 8 km
>= 3000ft
5 to 8 km
1000 to 3000 ft
1500m to 5 km
500 to 1000 ft
800 to 1500m
200 to 500 ft
< 800m
< 200 ft
Symbols :   Thunderstorms  Fog  Heavy snow  Heavy precipitations  Wind > 20 kt






- Airport Elevation : 151 ft
- IATA code : RJA


VORY - Rajahmundry

CURRENT METAR :
  • 231500Z 05006KT 6000 SCT020 FEW030CB 31/22 Q1002 NOSIG

EXPIRED METARs :
  • 231430Z 02007KT 6000 SCT020 FEW030CB 32/22 Q1001 NOSIG
  • 231400Z 03005KT 6000 SCT020 FEW030CB 33/23 Q1000 NOSIG
  • 231330Z 04006KT 6000 TS SCT020 FEW030CB 33/24 Q1000 NOSIG
  • 231300Z 04006KT 6000 TS SCT020 FEW030CB 35/26 Q0999 NOSIG
  • 231230Z 13006KT 6000 SCT020 FEW030CB 36/26 Q0999 NOSIG
  • 231200Z 14006KT 5000 HZ SCT020 FEW030CB 36/25 Q0998 NOSIG
  • 231100Z 17008KT 6000 SCT020 SCT025 37/25 Q0998 NOSIG
  • 231030Z 17006KT 6000 SCT020 SCT025 37/25 Q0998 NOSIG

TAF TAF VORY
Valid from the 23 at 15:00 until the 24 at 00:00 UTC


231400Z 2315/2324 06008KT 6000 SCT015 SCT100
TEMPO 2315/2320 09005KT 5000 HZ DZ SCT015 BKN100



MET'MAP, your aeronautical weather chart ! - Copyright ORBIFLY December 2007 - Disclaimer

ORBIFLY MET'MAP TEAM :

Programming & Development : Alexandra Zaïnal
Original concept : Baudouin d'Aumeries
Technical & hardware support : Manuel Goepfert
Assistance : Marc-Olivier Méhu




SOURCES & CREDITS :

   NOAA       Earth
Advisory